createdAt,value
2022-09-28T00:00:12.513Z,8.11
2022-09-28T00:02:45.277Z,8.24
2022-09-28T00:05:15.492Z,8.25
2022-09-28T00:07:46.961Z,8.20
2022-09-28T00:10:17.260Z,8.25
2022-09-28T00:12:47.252Z,8.32
2022-09-28T00:15:17.535Z,8.34
2022-09-28T00:17:50.644Z,8.29
2022-09-28T00:20:23.102Z,8.15
2022-09-28T00:22:53.099Z,8.19
2022-09-28T00:25:25.043Z,8.21
2022-09-28T00:27:55.092Z,8.17
2022-09-28T00:30:25.289Z,8.09
2022-09-28T00:32:58.516Z,8.14
2022-09-28T00:35:28.563Z,8.14
2022-09-28T00:37:58.505Z,8.19
2022-09-28T00:40:28.714Z,8.22
2022-09-28T00:42:58.737Z,8.11
2022-09-28T00:45:29.589Z,8.17
2022-09-28T00:48:02.849Z,8.29
2022-09-28T00:50:38.187Z,8.25
2022-09-28T00:53:16.279Z,8.28
2022-09-28T00:55:51.266Z,8.30
2022-09-28T00:58:27.914Z,8.28
2022-09-28T01:01:00.844Z,8.22
2022-09-28T01:03:35.289Z,8.28
2022-09-28T01:06:09.593Z,8.23
2022-09-28T01:08:44.609Z,8.23
2022-09-28T01:11:15.711Z,8.25
2022-09-28T01:13:47.381Z,8.32
2022-09-28T01:16:31.476Z,8.41
2022-09-28T01:19:44.761Z,8.40
2022-09-28T01:22:33.555Z,8.50
2022-09-28T01:25:13.526Z,8.56
2022-09-28T01:27:54.072Z,8.58
2022-09-28T01:30:25.327Z,8.57
2022-09-28T01:33:06.463Z,8.52
2022-09-28T01:35:44.895Z,8.41
2022-09-28T01:38:20.347Z,8.41
2022-09-28T01:40:53.003Z,8.48
2022-09-28T01:43:30.286Z,8.48
2022-09-28T01:46:09.709Z,8.56
2022-09-28T01:48:48.300Z,8.62
2022-09-28T01:51:31.167Z,8.59
2022-09-28T01:54:09.026Z,8.73
2022-09-28T01:56:46.037Z,8.74
2022-09-28T01:59:24.290Z,8.81
2022-09-28T02:02:01.097Z,8.79
2022-09-28T02:04:39.604Z,8.83
2022-09-28T02:07:15.025Z,8.89
2022-09-28T02:09:52.753Z,8.96
2022-09-28T02:12:34.176Z,8.98
2022-09-28T02:15:19.254Z,8.97
2022-09-28T02:17:50.318Z,9.00
2022-09-28T02:20:21.225Z,8.99
2022-09-28T02:22:55.785Z,9.01
2022-09-28T02:25:33.730Z,9.05
2022-09-28T02:28:07.729Z,9.04
2022-09-28T02:30:43.826Z,9.06
2022-09-28T02:33:21.551Z,9.06
2022-09-28T02:35:52.318Z,9.12
2022-09-28T02:38:24.409Z,9.10
2022-09-28T02:41:07.365Z,9.10
2022-09-28T02:43:55.030Z,9.08
2022-09-28T02:46:38.566Z,9.04
2022-09-28T02:49:33.784Z,9.02
2022-09-28T02:52:32.071Z,9.08
2022-09-28T02:55:35.327Z,9.02
2022-09-28T02:58:22.078Z,9.07
2022-09-28T03:01:05.826Z,9.10
2022-09-28T03:03:51.114Z,9.15
2022-09-28T03:06:33.306Z,9.08
2022-09-28T03:09:11.749Z,9.15
2022-09-28T03:11:50.341Z,9.18
2022-09-28T03:14:21.402Z,9.16
2022-09-28T03:16:57.897Z,9.14
2022-09-28T03:19:36.849Z,9.20
2022-09-28T03:22:08.115Z,9.20
2022-09-28T03:24:38.187Z,9.14
2022-09-28T03:27:08.157Z,9.15
2022-09-28T03:29:38.385Z,9.13
2022-09-28T03:32:10.147Z,9.09
2022-09-28T03:34:42.749Z,9.11
2022-09-28T03:37:13.150Z,9.11
2022-09-28T03:39:43.273Z,9.11
2022-09-28T03:42:13.272Z,9.09
2022-09-28T03:44:47.505Z,9.17
2022-09-28T03:47:18.111Z,9.20
2022-09-28T03:49:50.818Z,9.16
2022-09-28T03:52:20.843Z,9.15
2022-09-28T03:54:50.785Z,9.20
2022-09-28T03:57:20.866Z,9.23
2022-09-28T03:59:51.199Z,9.10
2022-09-28T04:02:21.226Z,9.20
2022-09-28T04:04:53.834Z,9.17
2022-09-28T04:07:26.937Z,9.14
2022-09-28T04:10:00.250Z,8.98
2022-09-28T04:12:30.275Z,9.02
2022-09-28T04:15:00.281Z,9.11
2022-09-28T04:17:30.313Z,9.06
2022-09-28T04:20:03.498Z,9.05
2022-09-28T04:23:02.462Z,9.06
2022-09-28T04:25:32.822Z,8.97
2022-09-28T04:28:15.290Z,8.91
2022-09-28T04:30:45.290Z,8.92
2022-09-28T04:33:15.259Z,8.79
2022-09-28T04:35:47.971Z,8.83
2022-09-28T04:38:30.692Z,8.82
2022-09-28T04:41:08.447Z,8.80
2022-09-28T04:43:38.486Z,8.89
2022-09-28T04:46:08.955Z,8.75
2022-09-28T04:48:45.776Z,8.73
2022-09-28T04:51:36.896Z,8.60
2022-09-28T04:54:07.134Z,8.64
2022-09-28T04:56:37.100Z,8.68
2022-09-28T04:59:07.385Z,8.71
2022-09-28T05:01:39.078Z,8.83
2022-09-28T05:04:26.186Z,8.56
2022-09-28T05:07:17.286Z,8.60
2022-09-28T05:09:47.189Z,8.63
2022-09-28T05:12:18.263Z,8.66
2022-09-28T05:14:48.208Z,8.51
2022-09-28T05:17:19.009Z,8.57
2022-09-28T05:20:02.962Z,8.61
2022-09-28T05:22:36.198Z,8.56
2022-09-28T05:25:09.103Z,8.65
2022-09-28T05:27:50.379Z,8.67
2022-09-28T05:30:34.145Z,8.72
2022-09-28T05:33:25.917Z,8.74
2022-09-28T05:36:14.101Z,8.70
2022-09-28T05:38:48.678Z,8.64
2022-09-28T05:41:18.667Z,8.63
2022-09-28T05:43:48.801Z,8.70
2022-09-28T05:46:20.291Z,8.73
2022-09-28T05:48:51.258Z,8.73
2022-09-28T05:51:21.488Z,8.64
2022-09-28T05:54:00.671Z,8.68
2022-09-28T05:56:33.775Z,8.75
2022-09-28T05:59:06.342Z,8.84
2022-09-28T06:01:36.468Z,8.86
2022-09-28T06:04:10.217Z,8.82
2022-09-28T06:06:40.442Z,8.86
2022-09-28T06:09:13.227Z,8.89
2022-09-28T06:12:04.131Z,8.85
2022-09-28T06:14:47.322Z,8.85
2022-09-28T06:17:17.301Z,8.91
2022-09-28T06:19:53.257Z,9.03
2022-09-28T06:22:33.814Z,9.01
2022-09-28T06:25:13.327Z,9.00
2022-09-28T06:27:43.285Z,8.94
2022-09-28T06:30:15.203Z,8.97
2022-09-28T06:32:45.215Z,8.97
2022-09-28T06:35:15.529Z,8.98
2022-09-28T06:37:47.873Z,9.02
2022-09-28T06:40:21.546Z,9.04
2022-09-28T06:42:58.753Z,9.08
2022-09-28T06:45:55.048Z,9.18
2022-09-28T06:48:45.058Z,9.24
2022-09-28T06:51:18.733Z,9.20
2022-09-28T06:54:00.499Z,9.15
2022-09-28T06:56:46.416Z,9.34
2022-09-28T06:59:16.742Z,9.37
2022-09-28T07:01:46.860Z,9.38
2022-09-28T07:04:31.243Z,9.56
2022-09-28T07:07:36.040Z,9.58
2022-09-28T07:10:22.003Z,9.62
2022-09-28T07:13:36.950Z,9.63
2022-09-28T07:16:10.479Z,9.58
2022-09-28T07:18:40.533Z,9.63
2022-09-28T07:21:21.372Z,9.67
2022-09-28T07:23:54.933Z,9.77
2022-09-28T07:26:28.418Z,9.51
2022-09-28T07:29:11.009Z,9.36
2022-09-28T07:31:47.209Z,9.52
2022-09-28T07:34:29.926Z,9.71
2022-09-28T07:37:24.223Z,9.83
2022-09-28T07:40:06.709Z,9.82
2022-09-28T07:42:40.065Z,10.05
2022-09-28T07:45:13.795Z,10.23
2022-09-28T07:47:43.773Z,10.44
2022-09-28T07:50:32.005Z,10.35
2022-09-28T07:53:31.032Z,10.23
2022-09-28T07:56:17.242Z,10.34
2022-09-28T07:58:56.710Z,10.16
2022-09-28T08:01:49.522Z,10.36
2022-09-28T08:04:20.636Z,10.56
2022-09-28T08:06:50.612Z,10.55
2022-09-28T08:09:21.874Z,10.14
2022-09-28T08:12:15.709Z,10.14
2022-09-28T08:15:15.542Z,10.35
2022-09-28T08:18:02.653Z,10.63
2022-09-28T08:20:49.374Z,10.86
2022-09-28T08:23:23.640Z,10.91
2022-09-28T08:25:55.700Z,11.09
2022-09-28T08:28:27.521Z,10.96
2022-09-28T08:31:04.702Z,11.09
2022-09-28T08:33:38.493Z,11.34
2022-09-28T08:36:28.356Z,10.96
2022-09-28T08:39:04.353Z,10.80
2022-09-28T08:42:05.354Z,10.91
2022-09-28T08:44:59.849Z,11.33
2022-09-28T08:48:39.594Z,11.82
2022-09-28T08:51:38.594Z,12.67
2022-09-28T08:54:40.297Z,12.75
2022-09-28T08:57:23.742Z,12.51
2022-09-28T08:59:56.979Z,13.28
2022-09-28T09:02:36.808Z,13.62
2022-09-28T09:05:20.617Z,14.24
2022-09-28T09:08:32.651Z,13.83
2022-09-28T09:11:18.080Z,14.18
2022-09-28T09:14:20.998Z,13.30
2022-09-28T09:17:02.548Z,13.27
2022-09-28T09:19:57.577Z,14.22
2022-09-28T09:23:02.386Z,15.28
2022-09-28T09:25:44.274Z,15.69
2022-09-28T09:28:43.971Z,14.92
2022-09-28T09:31:36.237Z,13.78
2022-09-28T09:34:59.198Z,13.63
2022-09-28T09:38:35.878Z,13.45
2022-09-28T09:42:07.693Z,12.62
2022-09-28T09:45:15.751Z,12.67
2022-09-28T09:48:21.845Z,13.09
2022-09-28T09:50:58.634Z,13.14
2022-09-28T09:53:38.392Z,12.91
2022-09-28T09:56:20.768Z,13.19
2022-09-28T09:59:28.790Z,13.30
2022-09-28T10:02:15.195Z,12.81
2022-09-28T10:05:00.206Z,12.48
2022-09-28T10:07:44.857Z,12.92
2022-09-28T10:10:23.270Z,13.33
2022-09-28T10:12:57.208Z,14.22
2022-09-28T10:15:33.308Z,14.38
2022-09-28T10:18:16.962Z,14.40
2022-09-28T10:21:06.088Z,14.68
2022-09-28T10:23:58.453Z,14.56
2022-09-28T10:26:40.123Z,14.73
2022-09-28T10:29:19.371Z,14.77
2022-09-28T10:31:54.113Z,15.45
2022-09-28T10:34:35.606Z,15.28
2022-09-28T10:37:14.653Z,14.86
2022-09-28T10:40:43.919Z,14.94
2022-09-28T10:43:25.664Z,15.20
2022-09-28T10:46:10.906Z,15.16
2022-09-28T10:48:55.043Z,15.32
2022-09-28T10:51:44.191Z,15.22
2022-09-28T10:54:22.801Z,15.22
2022-09-28T10:56:56.703Z,14.84
2022-09-28T10:59:46.898Z,15.03
2022-09-28T11:02:45.984Z,15.52
2022-09-28T11:05:30.145Z,15.19
2022-09-28T11:08:09.892Z,14.50
2022-09-28T11:10:49.074Z,14.67
2022-09-28T11:13:19.491Z,15.08
2022-09-28T11:15:59.856Z,14.91
2022-09-28T11:18:37.926Z,15.59
2022-09-28T11:21:20.641Z,15.34
2022-09-28T11:24:02.202Z,15.30
2022-09-28T11:26:42.446Z,15.36
2022-09-28T11:29:27.322Z,15.35
2022-09-28T11:32:16.777Z,14.91
2022-09-28T11:35:27.486Z,14.30
2022-09-28T11:38:26.292Z,14.33
2022-09-28T11:41:44.747Z,14.31
2022-09-28T11:44:39.968Z,14.32
2022-09-28T11:48:00.649Z,14.84
2022-09-28T11:50:46.132Z,14.97
2022-09-28T11:53:31.000Z,15.22
2022-09-28T11:56:20.121Z,15.56
2022-09-28T11:58:56.599Z,15.91
2022-09-28T12:01:45.270Z,15.35
2022-09-28T12:04:39.402Z,15.61
2022-09-28T12:07:23.577Z,15.20
2022-09-28T12:10:08.204Z,14.77
2022-09-28T12:12:47.709Z,14.68
2022-09-28T12:15:24.010Z,14.63
2022-09-28T12:18:03.758Z,14.90
2022-09-28T12:20:41.207Z,14.92
2022-09-28T12:23:19.484Z,14.64
2022-09-28T12:26:00.755Z,15.26
2022-09-28T12:28:41.361Z,15.98
2022-09-28T12:31:20.555Z,16.40
2022-09-28T12:33:54.830Z,16.29
2022-09-28T12:36:43.893Z,16.46
2022-09-28T12:39:56.988Z,16.38
2022-09-28T12:42:58.728Z,16.30
2022-09-28T12:46:11.157Z,16.12
2022-09-28T12:52:12.298Z,15.31
2022-09-28T12:55:12.493Z,15.84
2022-09-28T12:58:01.538Z,15.76
2022-09-28T13:00:44.172Z,16.14
2022-09-28T13:03:42.576Z,16.48
2022-09-28T13:06:39.394Z,16.09
2022-09-28T13:09:23.923Z,15.84
2022-09-28T13:12:20.307Z,16.05
2022-09-28T13:15:29.128Z,15.91
2022-09-28T13:18:10.389Z,16.51
2022-09-28T13:21:06.490Z,16.28
2022-09-28T13:23:44.052Z,16.12
2022-09-28T13:26:28.144Z,15.80
2022-09-28T13:29:04.857Z,15.84
2022-09-28T13:31:41.941Z,15.61
2022-09-28T13:34:22.504Z,15.54
2022-09-28T13:37:14.540Z,15.58
2022-09-28T13:39:56.380Z,15.21
2022-09-28T13:42:53.479Z,15.73
2022-09-28T13:45:56.898Z,15.06
2022-09-28T13:48:48.681Z,15.19
2022-09-28T13:51:41.396Z,14.92
2022-09-28T13:54:52.609Z,14.58
2022-09-28T13:57:32.136Z,15.11
2022-09-28T14:00:18.449Z,15.48
2022-09-28T14:02:54.680Z,15.43
2022-09-28T14:06:23.928Z,15.02
2022-09-28T14:09:25.222Z,15.50
2022-09-28T14:12:01.826Z,15.11
2022-09-28T14:14:49.881Z,15.28
2022-09-28T14:17:55.720Z,15.34
2022-09-28T14:20:29.826Z,15.47
2022-09-28T14:23:59.118Z,14.70
2022-09-28T14:27:13.376Z,14.63
2022-09-28T14:29:43.920Z,14.52
2022-09-28T14:32:37.501Z,14.66
2022-09-28T14:35:18.839Z,14.65
2022-09-28T14:38:05.664Z,14.23
2022-09-28T14:41:13.767Z,14.76
2022-09-28T14:44:05.285Z,15.10
2022-09-28T14:46:45.717Z,14.98
2022-09-28T14:50:03.216Z,15.20
2022-09-28T14:52:49.300Z,15.41
2022-09-28T14:55:29.109Z,15.37
2022-09-28T14:58:02.641Z,14.96
2022-09-28T15:00:33.218Z,15.22
2022-09-28T15:03:11.520Z,15.15
2022-09-28T15:05:47.728Z,15.23
2022-09-28T15:08:18.791Z,15.28
2022-09-28T15:10:51.549Z,15.19
2022-09-28T15:13:30.250Z,15.11
2022-09-28T15:16:10.228Z,14.97
2022-09-28T15:19:19.525Z,15.07
2022-09-28T15:21:51.137Z,14.61
2022-09-28T15:24:34.314Z,14.67
2022-09-28T15:27:20.236Z,14.80
2022-09-28T15:30:02.467Z,14.87
2022-09-28T15:32:33.121Z,14.65
2022-09-28T15:35:17.400Z,14.70
2022-09-28T15:37:49.906Z,14.39
2022-09-28T15:40:25.515Z,14.28
2022-09-28T15:42:59.089Z,14.41
2022-09-28T15:45:38.462Z,14.50
2022-09-28T15:48:29.116Z,14.22
2022-09-28T15:51:10.239Z,14.05
2022-09-28T15:53:49.826Z,13.77
2022-09-28T15:56:19.945Z,13.72
2022-09-28T15:59:21.155Z,13.53
2022-09-28T16:02:12.675Z,13.51
2022-09-28T16:04:51.639Z,13.16
2022-09-28T16:07:34.509Z,13.06
2022-09-28T16:10:30.438Z,12.86
2022-09-28T16:13:17.905Z,12.93
2022-09-28T16:15:49.683Z,12.61
2022-09-28T16:18:25.531Z,12.72
2022-09-28T16:20:58.888Z,12.57
2022-09-28T16:23:34.308Z,12.68
2022-09-28T16:26:08.557Z,12.71
2022-09-28T16:28:54.941Z,12.57
2022-09-28T16:31:41.523Z,12.41
2022-09-28T16:34:22.510Z,12.17
2022-09-28T16:36:53.401Z,12.13
2022-09-28T16:39:23.362Z,11.97
2022-09-28T16:41:58.538Z,11.94
2022-09-28T16:44:34.494Z,11.76
2022-09-28T16:47:04.612Z,11.60
2022-09-28T16:49:34.642Z,11.48
2022-09-28T16:52:05.158Z,11.33
2022-09-28T16:54:47.621Z,11.23
2022-09-28T16:57:18.574Z,11.03
2022-09-28T16:59:51.065Z,10.81
2022-09-28T17:02:45.901Z,10.65
2022-09-28T17:05:19.403Z,10.41
2022-09-28T17:07:51.555Z,10.24
2022-09-28T17:10:31.611Z,10.03
2022-09-28T17:13:01.803Z,9.87
2022-09-28T17:15:35.542Z,9.70
2022-09-28T17:18:06.120Z,9.55
2022-09-28T17:20:38.716Z,9.47
2022-09-28T17:23:08.677Z,9.34
2022-09-28T17:25:40.474Z,9.10
2022-09-28T17:28:21.825Z,9.00
2022-09-28T17:30:55.023Z,8.87
2022-09-28T17:33:25.230Z,8.88
2022-09-28T17:36:01.495Z,8.79
2022-09-28T17:38:32.094Z,8.73
2022-09-28T17:41:02.143Z,8.69
2022-09-28T17:43:32.198Z,8.61
2022-09-28T17:46:05.633Z,8.43
2022-09-28T17:48:35.858Z,8.32
2022-09-28T17:51:06.001Z,8.24
2022-09-28T17:53:36.045Z,8.18
2022-09-28T17:56:06.041Z,8.19
2022-09-28T17:58:36.067Z,8.10
2022-09-28T18:01:08.911Z,8.02
2022-09-28T18:03:40.477Z,7.98
2022-09-28T18:06:16.304Z,7.90
2022-09-28T18:08:46.859Z,7.91
2022-09-28T18:11:17.415Z,7.91
2022-09-28T18:13:47.687Z,7.82
2022-09-28T18:16:22.722Z,7.83
2022-09-28T18:18:52.775Z,7.73
2022-09-28T18:21:22.848Z,7.73
2022-09-28T18:23:52.961Z,7.77
2022-09-28T18:26:23.175Z,7.67
2022-09-28T18:28:58.050Z,7.64
2022-09-28T18:31:30.681Z,7.62
2022-09-28T18:34:02.969Z,7.56
2022-09-28T18:36:35.635Z,7.51
2022-09-28T18:39:06.239Z,7.39
2022-09-28T18:41:36.274Z,7.24
2022-09-28T18:44:06.380Z,7.23
2022-09-28T18:46:39.267Z,7.24
2022-09-28T18:49:09.564Z,7.19
2022-09-28T18:51:39.611Z,7.13
2022-09-28T18:54:09.774Z,7.15
2022-09-28T18:56:40.080Z,7.23
2022-09-28T18:59:12.622Z,7.18
2022-09-28T19:01:45.391Z,7.13
2022-09-28T19:04:15.691Z,7.11
2022-09-28T19:06:50.432Z,7.03
2022-09-28T19:09:24.600Z,7.05
2022-09-28T19:11:54.927Z,6.97
2022-09-28T19:14:25.212Z,7.02
2022-09-28T19:16:57.830Z,6.93
2022-09-28T19:19:29.207Z,6.93
2022-09-28T19:21:59.290Z,6.87
2022-09-28T19:24:29.671Z,6.84
2022-09-28T19:27:00.072Z,6.83
2022-09-28T19:29:30.337Z,6.82
2022-09-28T19:32:03.058Z,6.80
2022-09-28T19:34:33.322Z,6.78
2022-09-28T19:37:04.060Z,6.84
2022-09-28T19:39:34.670Z,6.76
2022-09-28T19:42:04.751Z,6.71
2022-09-28T19:44:37.403Z,6.58
2022-09-28T19:47:13.111Z,6.50
2022-09-28T19:49:44.359Z,6.37
2022-09-28T19:52:18.021Z,6.28
2022-09-28T19:54:52.235Z,6.24
2022-09-28T19:57:22.680Z,6.20
2022-09-28T19:59:54.368Z,6.12
2022-09-28T20:02:29.637Z,6.09
2022-09-28T20:04:59.976Z,6.24
2022-09-28T20:07:32.995Z,6.23
2022-09-28T20:10:03.173Z,6.17
2022-09-28T20:12:33.183Z,6.13
2022-09-28T20:15:03.515Z,6.12
2022-09-28T20:17:38.042Z,6.11
2022-09-28T20:20:09.053Z,6.13
2022-09-28T20:22:39.061Z,6.07
2022-09-28T20:25:10.327Z,6.16
2022-09-28T20:27:40.490Z,6.12
2022-09-28T20:30:13.925Z,6.14
2022-09-28T20:32:49.572Z,6.08
2022-09-28T20:35:32.638Z,6.02
2022-09-28T20:38:08.047Z,6.22
2022-09-28T20:40:38.571Z,6.29
2022-09-28T20:43:09.599Z,6.28
2022-09-28T20:45:40.390Z,6.26
2022-09-28T20:48:13.222Z,6.17
2022-09-28T20:50:44.186Z,6.13
2022-09-28T20:53:14.264Z,6.09
2022-09-28T20:55:44.465Z,6.04
2022-09-28T20:58:15.952Z,5.90
2022-09-28T21:00:47.590Z,5.81
2022-09-28T21:03:20.645Z,5.81
2022-09-28T21:05:53.784Z,5.76
2022-09-28T21:08:25.799Z,5.74
2022-09-28T21:10:56.561Z,5.69
2022-09-28T21:13:28.552Z,5.67
2022-09-28T21:16:03.509Z,5.81
2022-09-28T21:18:36.304Z,5.82
2022-09-28T21:21:09.880Z,5.78
2022-09-28T21:23:40.197Z,5.76
2022-09-28T21:26:14.212Z,5.84
2022-09-28T21:28:46.053Z,5.92
2022-09-28T21:31:17.238Z,5.88
2022-09-28T21:33:50.148Z,5.82
2022-09-28T21:36:20.945Z,5.83
2022-09-28T21:38:51.050Z,5.84
2022-09-28T21:41:23.042Z,5.79
2022-09-28T21:43:53.265Z,5.80
2022-09-28T21:46:23.379Z,5.82
2022-09-28T21:48:58.741Z,5.94
2022-09-28T21:51:29.059Z,5.87
2022-09-28T21:53:59.676Z,5.86
2022-09-28T21:56:29.851Z,5.99
2022-09-28T21:59:01.322Z,6.03
2022-09-28T22:01:31.918Z,6.02
2022-09-28T22:04:04.838Z,6.08
2022-09-28T22:06:35.600Z,6.10
2022-09-28T22:09:05.900Z,6.16
2022-09-28T22:11:36.109Z,6.15
2022-09-28T22:14:06.439Z,6.30
2022-09-28T22:16:36.572Z,6.29
2022-09-28T22:19:09.503Z,6.18
2022-09-28T22:21:39.895Z,6.10
2022-09-28T22:24:10.537Z,5.98
2022-09-28T22:26:42.234Z,5.91
2022-09-28T22:29:13.002Z,5.81
2022-09-28T22:31:44.368Z,5.80
2022-09-28T22:34:17.203Z,5.81
2022-09-28T22:36:47.303Z,5.76
2022-09-28T22:39:17.390Z,5.73
2022-09-28T22:41:47.741Z,5.76
2022-09-28T22:44:18.563Z,5.67
2022-09-28T22:46:49.249Z,5.58
2022-09-28T22:49:22.298Z,5.51
2022-09-28T22:51:52.491Z,5.45
2022-09-28T22:54:22.511Z,5.43
2022-09-28T22:56:52.621Z,5.43
2022-09-28T22:59:22.692Z,5.38
2022-09-28T23:01:53.043Z,5.27
2022-09-28T23:04:25.867Z,5.28
2022-09-28T23:06:56.249Z,5.23
2022-09-28T23:09:26.368Z,5.19
2022-09-28T23:11:56.356Z,5.25
2022-09-28T23:14:26.394Z,5.27
2022-09-28T23:16:56.451Z,5.27
2022-09-28T23:19:29.611Z,5.28
2022-09-28T23:21:59.740Z,5.31
2022-09-28T23:24:30.658Z,5.40
2022-09-28T23:27:00.630Z,5.46
2022-09-28T23:29:30.880Z,5.51
2022-09-28T23:32:00.865Z,5.53
2022-09-28T23:34:33.544Z,5.54
2022-09-28T23:37:03.702Z,5.58
2022-09-28T23:39:33.872Z,5.70
2022-09-28T23:42:04.578Z,5.78
2022-09-28T23:44:34.693Z,5.76
2022-09-28T23:47:04.707Z,5.79
2022-09-28T23:49:37.458Z,5.91
2022-09-28T23:52:07.560Z,5.97
2022-09-28T23:54:38.091Z,5.90
2022-09-28T23:57:08.230Z,5.86
2022-09-28T23:59:38.758Z,5.85
